Time;durP1;ratioP1;P1;durP2;ratioP2;P2;SDS_P1;SDS_P2;PMS_P1;PMS_P2;Temp;Humidity;BMP_temperature;BMP_pressure;BME280_temperature;BME280_humidity;BME280_pressure;Samples;Min_cycle;Max_cycle;Signal;HPM_P1;HPM_P2
2023/06/26 00:02:32;;;;;;;5.97;4.30;;;12.90;99.90;;;;;;21031018;28;20067;-51
2023/06/26 00:12:34;;;;;;;7.15;4.20;;;13.10;99.90;;;;;;21036671;28;20442;-49
2023/06/26 00:22:35;;;;;;;5.53;4.07;;;13.20;99.90;;;;;;21040967;28;20067;-49
2023/06/26 00:32:37;;;;;;;6.10;3.40;;;13.50;99.90;;;;;;21037035;28;20210;-53
2023/06/26 00:42:39;;;;;;;5.38;3.60;;;13.80;99.90;;;;;;21042770;28;20144;-54
2023/06/26 00:52:40;;;;;;;5.28;3.50;;;13.70;99.90;;;;;;21006699;28;20072;-55
2023/06/26 01:02:42;;;;;;;4.35;3.67;;;13.90;99.90;;;;;;21005448;28;20107;-49
2023/06/26 01:12:45;;;;;;;4.88;3.75;;;13.50;99.90;;;;;;21004696;28;20071;-54
2023/06/26 01:23:15;;;;;;;4.90;3.33;;;13.20;99.90;;;;;;21022719;28;20109;-51
2023/06/26 01:33:18;;;;;;;3.50;2.97;;;13.20;99.90;;;;;;21011824;28;20121;-53
2023/06/26 01:44:02;;;;;;;5.95;3.17;;;13.10;99.90;;;;;;21029296;28;20120;-54
2023/06/26 01:54:13;;;;;;;4.80;3.10;;;13.00;99.90;;;;;;21021667;28;20538;-54
2023/06/26 02:04:16;;;;;;;4.55;3.17;;;12.80;99.90;;;;;;21020628;28;20079;-51
2023/06/26 02:14:18;;;;;;;4.70;2.50;;;12.70;99.90;;;;;;21005057;28;20532;-50
2023/06/26 02:24:19;;;;;;;4.78;2.95;;;12.70;99.90;;;;;;21018973;28;20477;-53
2023/06/26 02:34:21;;;;;;;5.80;3.10;;;12.50;99.90;;;;;;21028256;28;20060;-49
2023/06/26 02:44:22;;;;;;;5.25;2.85;;;12.40;99.90;;;;;;20993890;28;20088;-50
2023/06/26 02:54:24;;;;;;;4.68;2.70;;;12.40;99.90;;;;;;21003961;28;20119;-48
2023/06/26 03:04:29;;;;;;;4.88;2.70;;;12.30;99.90;;;;;;21004726;28;20067;-52
2023/06/26 03:14:31;;;;;;;4.68;3.10;;;12.30;99.90;;;;;;21022090;28;20072;-51
2023/06/26 03:24:33;;;;;;;6.55;2.60;;;12.50;99.90;;;;;;21019337;28;20071;-50
2023/06/26 03:34:35;;;;;;;3.88;2.58;;;12.30;99.90;;;;;;21038218;28;20064;-54
2023/06/26 03:44:37;;;;;;;3.13;2.40;;;12.40;99.90;;;;;;21017378;28;20067;-50
2023/06/26 03:54:38;;;;;;;4.22;2.92;;;12.40;99.90;;;;;;21031762;28;20153;-47
2023/06/26 04:04:40;;;;;;;4.15;2.78;;;12.70;99.90;;;;;;21026850;28;20130;-48
2023/06/26 04:14:41;;;;;;;3.80;2.60;;;12.50;99.90;;;;;;21049142;28;20073;-49
2023/06/26 04:24:45;;;;;;;4.78;3.08;;;12.50;99.90;;;;;;21028093;28;20064;-49
2023/06/26 04:34:47;;;;;;;5.15;3.28;;;12.50;99.90;;;;;;21027695;28;20132;-55
2023/06/26 04:44:49;;;;;;;4.03;2.90;;;12.80;99.90;;;;;;21039576;28;20547;-51
2023/06/26 04:54:51;;;;;;;4.90;2.92;;;12.80;99.90;;;;;;21021480;28;20097;-50
2023/06/26 05:04:52;;;;;;;4.85;3.13;;;13.10;99.90;;;;;;21020539;28;20063;-54
2023/06/26 05:14:54;;;;;;;4.47;2.72;;;13.20;99.90;;;;;;21018604;28;20166;-51
2023/06/26 05:24:59;;;;;;;4.55;3.17;;;13.20;99.90;;;;;;21029080;28;20152;-46
2023/06/26 05:35:03;;;;;;;4.50;3.10;;;13.30;99.90;;;;;;21006559;28;20106;-48
2023/06/26 05:45:05;;;;;;;3.10;2.60;;;13.50;99.90;;;;;;21021461;28;20582;-50
2023/06/26 05:55:07;;;;;;;4.15;3.00;;;13.60;99.90;;;;;;21015294;28;20185;-49
2023/06/26 06:05:09;;;;;;;5.47;3.10;;;14.00;99.90;;;;;;21005890;28;20064;-48
2023/06/26 06:15:11;;;;;;;4.22;3.20;;;14.70;99.90;;;;;;20987551;28;20633;-53
2023/06/26 06:25:12;;;;;;;4.20;3.17;;;18.20;99.90;;;;;;21022100;28;20497;-45
2023/06/26 06:35:14;;;;;;;4.60;2.97;;;21.90;95.50;;;;;;21011244;28;20120;-52
2023/06/26 06:45:15;;;;;;;5.82;3.10;;;23.10;98.10;;;;;;20994101;28;20112;-54
2023/06/26 06:55:17;;;;;;;3.78;3.00;;;24.20;91.70;;;;;;20982328;28;20115;-48
2023/06/26 07:05:19;;;;;;;3.53;3.10;;;26.00;89.50;;;;;;20993987;28;20060;-55
2023/06/26 07:15:21;;;;;;;6.88;3.50;;;27.40;85.40;;;;;;20996403;28;20122;-54
2023/06/26 07:25:22;;;;;;;3.60;3.30;;;29.40;81.40;;;;;;20990796;28;20060;-55
2023/06/26 07:35:27;;;;;;;3.50;3.20;;;30.40;86.30;;;;;;21003408;28;20119;-54
2023/06/26 07:45:28;;;;;;;3.90;3.50;;;30.40;80.40;;;;;;20991516;28;20071;-56
2023/06/26 07:55:30;;;;;;;5.13;3.90;;;30.40;77.00;;;;;;21014226;28;20121;-56
2023/06/26 08:05:32;;;;;;;4.45;4.05;;;30.20;77.60;;;;;;21021310;28;20121;-54
2023/06/26 08:15:33;;;;;;;3.88;3.42;;;30.00;78.80;;;;;;21033810;28;20063;-54
2023/06/26 08:25:35;;;;;;;4.75;3.72;;;29.80;81.10;;;;;;21058761;28;20067;-56
2023/06/26 08:35:36;;;;;;;6.20;4.03;;;29.30;79.50;;;;;;21034047;28;20074;-56
2023/06/26 08:45:38;;;;;;;4.07;3.67;;;29.10;81.30;;;;;;21058067;28;20136;-55
2023/06/26 08:55:43;;;;;;;4.57;4.18;;;29.00;82.30;;;;;;21025475;28;20075;-55
2023/06/26 09:05:44;;;;;;;5.03;4.53;;;29.10;83.10;;;;;;21037933;28;20059;-53
2023/06/26 09:15:46;;;;;;;6.47;4.30;;;28.90;82.90;;;;;;21018088;28;20122;-56
2023/06/26 09:25:48;;;;;;;4.85;4.35;;;28.90;85.40;;;;;;21030908;28;20064;-56
2023/06/26 09:35:49;;;;;;;6.05;5.43;;;28.70;85.70;;;;;;21048799;28;20125;-56
2023/06/26 09:45:51;;;;;;;7.50;5.38;;;29.00;87.20;;;;;;21025832;28;20605;-47
2023/06/26 09:55:53;;;;;;;7.63;6.13;;;29.00;88.20;;;;;;20995333;28;20234;-55
2023/06/26 10:05:55;;;;;;;5.55;5.00;;;29.10;87.00;;;;;;20978623;28;20069;-49
2023/06/26 10:16:00;;;;;;;7.80;6.47;;;29.00;87.80;;;;;;20977540;28;20137;-49
2023/06/26 10:26:02;;;;;;;6.07;5.47;;;29.10;87.50;;;;;;21009983;28;20500;-55
2023/06/26 10:36:28;;;;;;;8.85;5.65;;;29.30;90.10;;;;;;21014808;28;20071;-55
2023/06/26 10:46:34;;;;;;;5.95;5.30;;;29.60;90.10;;;;;;20998335;28;20170;-54
2023/06/26 10:56:50;;;;;;;7.35;5.22;;;29.60;90.60;;;;;;20999368;28;20130;-49
2023/06/26 11:07:11;;;;;;;;;;;29.70;87.80;;;;;;20985050;28;20060;-53
2023/06/26 11:17:14;;;;;;;6.93;4.93;;;29.80;90.20;;;;;;20994171;28;20523;-54
2023/06/26 11:27:16;;;;;;;5.68;5.07;;;30.10;87.00;;;;;;21005702;28;20117;-55
2023/06/26 11:37:20;;;;;;;7.47;5.03;;;30.10;85.00;;;;;;21009655;28;20067;-54
2023/06/26 11:47:22;;;;;;;5.55;5.03;;;29.80;88.30;;;;;;20984531;28;20072;-56
2023/06/26 11:57:24;;;;;;;5.88;4.97;;;29.90;87.90;;;;;;21002142;28;20125;-55
2023/06/26 12:07:26;;;;;;;8.40;5.05;;;30.10;86.10;;;;;;21002282;28;20060;-54
2023/06/26 12:17:28;;;;;;;6.43;5.10;;;29.80;87.90;;;;;;21007413;28;20157;-55
2023/06/26 12:27:30;;;;;;;9.10;5.85;;;29.90;88.10;;;;;;21005914;28;20072;-53
2023/06/26 12:37:40;;;;;;;11.40;5.95;;;29.60;85.80;;;;;;21003951;28;20067;-55
2023/06/26 12:47:41;;;;;;;10.88;6.50;;;29.60;87.30;;;;;;20991783;28;20083;-55
2023/06/26 12:57:43;;;;;;;6.40;5.70;;;29.80;84.60;;;;;;20981556;28;20126;-55
2023/06/26 13:07:45;;;;;;;8.02;5.70;;;29.80;88.60;;;;;;20996348;28;20836;-56
2023/06/26 13:17:46;;;;;;;6.93;5.32;;;29.80;85.80;;;;;;20989036;28;20063;-55
2023/06/26 13:27:49;;;;;;;7.32;5.30;;;29.90;85.10;;;;;;21003355;28;20072;-56
2023/06/26 13:37:50;;;;;;;7.22;5.32;;;30.10;87.80;;;;;;21008668;28;20069;-55
2023/06/26 13:47:52;;;;;;;5.55;5.03;;;30.30;85.20;;;;;;21006547;28;20099;-57
2023/06/26 13:57:53;;;;;;;6.45;4.50;;;30.50;84.00;;;;;;21004114;28;20075;-56
2023/06/26 14:07:55;;;;;;;7.45;5.70;;;30.40;85.40;;;;;;20993923;28;20067;-56
2023/06/26 14:17:58;;;;;;;6.13;4.90;;;30.80;84.50;;;;;;20982779;28;20068;-56
2023/06/26 14:27:59;;;;;;;6.72;5.70;;;31.00;83.70;;;;;;21002398;28;20068;-56
2023/06/26 14:38:02;;;;;;;7.63;5.88;;;31.00;83.80;;;;;;20993192;28;20057;-56
2023/06/26 14:48:04;;;;;;;7.75;6.05;;;31.20;82.20;;;;;;21041133;28;20209;-56
2023/06/26 14:58:06;;;;;;;6.03;5.50;;;31.50;81.20;;;;;;21037724;28;20214;-56
2023/06/26 15:08:09;;;;;;;6.93;5.25;;;31.70;81.30;;;;;;21042770;28;20068;-56
2023/06/26 15:18:11;;;;;;;6.80;5.83;;;31.60;81.60;;;;;;21023933;28;20138;-54
2023/06/26 15:28:12;;;;;;;10.20;5.57;;;31.50;80.20;;;;;;21050817;28;20068;-56
2023/06/26 15:38:14;;;;;;;6.88;4.90;;;31.10;80.70;;;;;;21054663;28;20076;-56
2023/06/26 15:48:16;;;;;;;8.70;5.25;;;30.80;80.80;;;;;;21037060;28;20072;-45
2023/06/26 15:58:17;;;;;;;6.13;5.53;;;30.40;81.30;;;;;;21058664;28;20063;-54
2023/06/26 16:08:19;;;;;;;6.32;4.47;;;;;;;;;;21025662;28;20064;-53
2023/06/26 16:18:22;;;;;;;8.63;5.85;;;27.50;86.60;;;;;;21039186;28;20121;-53
2023/06/26 16:28:24;;;;;;;6.55;5.88;;;26.00;89.70;;;;;;21052300;28;20540;-53
2023/06/26 16:38:25;;;;;;;7.97;5.38;;;25.20;90.30;;;;;;21012042;28;20509;-54
2023/06/26 16:48:27;;;;;;;6.57;5.10;;;24.80;91.30;;;;;;21011047;28;20076;-49
2023/06/26 16:58:29;;;;;;;5.88;5.25;;;24.30;92.20;;;;;;21040610;28;20068;-52
2023/06/26 17:08:30;;;;;;;7.20;5.63;;;23.00;92.90;;;;;;21043449;28;20074;-53
2023/06/26 17:18:32;;;;;;;10.25;5.25;;;22.00;94.00;;;;;;21040918;28;20251;-52
2023/06/26 17:28:33;;;;;;;6.30;5.32;;;21.20;96.50;;;;;;21045233;28;20067;-51
2023/06/26 17:38:36;;;;;;;9.38;5.65;;;20.60;98.00;;;;;;21008966;28;20500;-48
2023/06/26 17:48:38;;;;;;;6.55;4.75;;;20.30;98.80;;;;;;21034997;28;20083;-48
2023/06/26 17:58:40;;;;;;;8.90;5.63;;;19.90;99.90;;;;;;21030542;28;20076;-52
2023/06/26 18:08:41;;;;;;;8.50;5.72;;;19.50;99.90;;;;;;21043961;28;20089;-54
2023/06/26 18:18:43;;;;;;;10.05;5.43;;;19.20;99.90;;;;;;21048719;28;20072;-48
2023/06/26 18:28:46;;;;;;;9.30;5.53;;;19.00;99.90;;;;;;21028073;28;20079;-55
2023/06/26 18:38:47;;;;;;;8.45;5.40;;;18.60;99.90;;;;;;20996264;28;20158;-49
2023/06/26 18:49:02;;;;;;;6.13;4.90;;;18.30;99.90;;;;;;21031769;28;20742;-45
2023/06/26 18:59:04;;;;;;;6.65;4.10;;;18.10;99.90;;;;;;21023406;28;20132;-47
2023/06/26 19:09:06;;;;;;;7.20;4.38;;;17.90;99.90;;;;;;20990685;28;20072;-46
2023/06/26 19:19:08;;;;;;;6.28;4.63;;;17.60;99.90;;;;;;21025734;28;20136;-47
2023/06/26 19:29:09;;;;;;;6.18;5.10;;;17.30;99.90;;;;;;21010938;28;20548;-54
2023/06/26 19:39:11;;;;;;;6.28;5.15;;;17.00;99.90;;;;;;21026108;28;20064;-50
2023/06/26 19:49:13;;;;;;;6.28;5.45;;;16.90;99.90;;;;;;21021654;28;20489;-47
2023/06/26 19:59:15;;;;;;;9.73;6.80;;;17.00;99.90;;;;;;21045218;28;20558;-49
2023/06/26 20:09:17;;;;;;;9.63;6.53;;;17.10;99.90;;;;;;21039577;28;20068;-50
2023/06/26 20:19:18;;;;;;;11.07;7.75;;;17.10;99.90;;;;;;21038482;28;20067;-52
2023/06/26 20:29:20;;;;;;;10.52;7.60;;;16.90;99.90;;;;;;21033628;28;20197;-50
2023/06/26 20:39:25;;;;;;;13.15;8.27;;;16.70;99.90;;;;;;21032050;28;20076;-51
2023/06/26 20:49:27;;;;;;;10.15;8.63;;;16.80;99.90;;;;;;21053838;28;20113;-53
2023/06/26 20:59:29;;;;;;;10.00;8.80;;;16.70;99.90;;;;;;21042893;28;20071;-50
2023/06/26 21:09:30;;;;;;;11.05;9.15;;;16.70;99.90;;;;;;21033244;28;20064;-52
2023/06/26 21:19:32;;;;;;;10.82;9.40;;;16.70;99.90;;;;;;21045532;28;20068;-56
2023/06/26 21:29:34;;;;;;;14.32;9.15;;;16.70;99.90;;;;;;21027523;28;20067;-50
2023/06/26 21:39:35;;;;;;;13.40;9.25;;;16.60;99.90;;;;;;21042396;28;20574;-54
2023/06/26 21:49:38;;;;;;;10.95;8.48;;;16.50;99.90;;;;;;21042767;28;20484;-47
2023/06/26 21:59:40;;;;;;;13.70;9.30;;;16.60;99.90;;;;;;21000376;28;20169;-49
2023/06/26 22:09:41;;;;;;;13.38;8.48;;;16.70;99.90;;;;;;21037105;28;20555;-48
2023/06/26 22:19:43;;;;;;;11.40;9.20;;;16.70;99.90;;;;;;21036137;28;20130;-53
2023/06/26 22:29:45;;;;;;;15.25;9.82;;;16.60;99.90;;;;;;21036450;28;20055;-52
2023/06/26 22:39:47;;;;;;;14.75;10.02;;;16.30;99.90;;;;;;21039788;28;20104;-49
2023/06/26 22:49:48;;;;;;;14.38;11.40;;;16.10;99.90;;;;;;21030813;28;20064;-52
2023/06/26 22:59:50;;;;;;;15.77;10.63;;;15.80;99.90;;;;;;21019750;28;20075;-48
2023/06/26 23:09:52;;;;;;;14.00;10.60;;;15.60;99.90;;;;;;20987158;28;20067;-51
2023/06/26 23:19:53;;;;;;;16.67;10.90;;;15.40;99.90;;;;;;21030592;28;20068;-56
2023/06/26 23:29:55;;;;;;;15.23;11.35;;;15.40;99.90;;;;;;21041619;28;20064;-53
2023/06/26 23:39:57;;;;;;;19.00;12.00;;;15.60;99.90;;;;;;21040091;28;20118;-53
2023/06/26 23:49:58;;;;;;;18.02;11.95;;;15.50;99.90;;;;;;21036260;28;20071;-54
